KPGA/PGA METAR and TAF weather

Enter ICAO airport designator
Station Type Date Time Source
KPGA METAR 2021/09/16 21:53 UTC NOAA

KPGA 162153Z AUTO VRB04KT 10SM CLR 33/M11 A2990 RMK AO2 SLP052 T03331106


Station Type Date Time Source
KPGA Decoded METAR 2021/09/16 21:53 UTC NOAA

PAGE MUNICIPAL AIRPORT, AZ, United States (KPGA) 36-56N 111-27W 1307M
Sep 16, 2021 - 05:53 PM EDT / 2021.09.16 2153 UTC
Wind: Variable at 5 MPH (4 KT):0
Visibility: 10 mile(s):0
Sky conditions: clear
Temperature: 91.9 F (33.3 C)
Dew Point: 12.9 F (-10.6 C)
Relative Humidity: 5%
Pressure (altimeter): 29.9 in. Hg (1012 hPa)
ob: KPGA 162153Z AUTO VRB04KT 10SM CLR 33/M11 A2990 RMK AO2 SLP052 T03331106
cycle: 22

Station Type Date Time Source
KPGA TAF 2021/09/16 18:22 UTC NOAA

TAF KPGA 161720Z 1618/1718 03007KT P6SM SKC
FM162000 26010G18KT P6SM SKC
FM170200 VRB04KT P6SM SKC

Example: see airport list